Time;durP1;ratioP1;P1;durP2;ratioP2;P2;SDS_P1;SDS_P2;PMS_P1;PMS_P2;Temp;Humidity;BMP_temperature;BMP_pressure;BME280_temperature;BME280_humidity;BME280_pressure;Samples;Min_cycle;Max_cycle;Signal;HPM_P1;HPM_P2
2022/07/02 01:31:10;;;;;;;4.20;3.80;;;13.80;99.90;;;;;;5028129;28;20478;-96
2022/07/02 01:33:56;;;;;;;5.70;3.80;;;14.30;99.90;;;;;;5029078;28;20446;-96
2022/07/02 01:36:22;;;;;;;5.23;3.77;;;15.10;99.90;;;;;;5043476;28;20424;-96
2022/07/02 01:54:24;;;;;;;6.07;5.47;;;13.40;99.90;;;;;;5546447;22;20486;-95
2022/07/02 01:56:50;;;;;;;5.80;5.30;;;15.40;99.90;;;;;;5066675;28;20526;-96
2022/07/02 01:59:16;;;;;;;6.83;5.33;;;14.90;99.90;;;;;;5061805;28;20798;-96
2022/07/02 02:01:43;;;;;;;5.93;5.33;;;14.00;99.90;;;;;;5052459;28;20450;-96
2022/07/02 03:13:58;;;;;;;4.50;3.53;;;12.60;99.90;;;;;;5019125;28;20554;-94
2022/07/02 03:16:24;;;;;;;5.17;3.60;;;12.40;99.90;;;;;;5006623;28;21095;-94
2022/07/02 03:18:49;;;;;;;4.10;3.70;;;12.50;99.90;;;;;;5015772;28;20467;-93
2022/07/02 03:21:15;;;;;;;3.90;3.60;;;12.20;99.90;;;;;;5023983;28;20247;-91
2022/07/02 03:23:41;;;;;;;4.23;3.93;;;12.20;99.90;;;;;;5030644;28;20192;-93
2022/07/02 03:26:09;;;;;;;4.10;3.80;;;12.20;99.90;;;;;;5015783;28;20191;-93
2022/07/02 03:28:35;;;;;;;4.10;3.80;;;12.20;99.90;;;;;;5019138;28;20212;-93
2022/07/02 03:31:01;;;;;;;4.30;3.90;;;12.20;99.90;;;;;;5014745;28;20441;-94
2022/07/02 03:33:26;;;;;;;3.33;3.13;;;12.20;99.90;;;;;;5039618;28;20270;-94
2022/07/02 03:35:52;;;;;;;3.53;3.30;;;12.20;99.90;;;;;;5010795;28;20168;-95
2022/07/02 03:38:17;;;;;;;3.27;2.97;;;12.20;99.90;;;;;;5038725;28;20275;-94
2022/07/02 03:40:43;;;;;;;3.17;2.97;;;12.40;99.90;;;;;;5041805;28;20188;-94
2022/07/02 03:43:08;;;;;;;3.23;2.70;;;12.30;99.90;;;;;;5008377;28;20199;-95
2022/07/02 03:45:34;;;;;;;3.07;2.63;;;12.30;99.90;;;;;;5011920;28;20673;-94
2022/07/02 03:48:00;;;;;;;2.70;2.50;;;12.20;99.90;;;;;;5006593;28;20238;-95
2022/07/02 03:50:26;;;;;;;2.70;2.50;;;12.30;99.90;;;;;;5003094;28;20251;-94
2022/07/02 03:52:51;;;;;;;2.53;2.43;;;12.60;99.90;;;;;;5003213;28;20450;-94
2022/07/02 03:55:19;;;;;;;4.87;2.90;;;12.40;99.90;;;;;;5011666;28;20530;-93
2022/07/02 03:57:45;;;;;;;3.60;3.40;;;12.40;99.90;;;;;;5008635;28;20229;-94
2022/07/02 04:00:11;;;;;;;3.90;3.50;;;12.40;99.90;;;;;;5007953;28;22019;-95
2022/07/02 04:02:36;;;;;;;3.70;3.40;;;12.60;99.90;;;;;;5010941;28;20548;-94
2022/07/02 04:05:02;;;;;;;5.17;4.70;;;12.30;99.90;;;;;;5007163;28;20180;-94
2022/07/02 04:07:27;;;;;;;3.80;3.50;;;12.40;99.90;;;;;;4999374;28;20205;-93
2022/07/02 04:09:53;;;;;;;3.50;3.20;;;12.50;99.90;;;;;;5007378;28;20191;-95
2022/07/02 04:12:19;;;;;;;3.40;3.17;;;12.40;99.90;;;;;;5007279;28;20198;-95
2022/07/02 04:14:44;;;;;;;3.30;3.10;;;12.40;99.90;;;;;;5003425;28;20189;-95
2022/07/02 04:17:20;;;;;;;3.83;3.53;;;12.60;99.90;;;;;;5007995;28;20271;-96
2022/07/02 04:19:46;;;;;;;3.50;3.20;;;13.70;99.90;;;;;;5036851;28;20180;-95
2022/07/02 04:22:11;;;;;;;3.70;3.40;;;12.60;99.90;;;;;;5005621;28;20453;-94
2022/07/02 04:24:37;;;;;;;4.93;4.53;;;12.80;99.90;;;;;;5009065;28;20208;-93
2022/07/02 04:27:03;;;;;;;5.13;4.50;;;12.90;99.90;;;;;;5039151;28;20558;-93
2022/07/02 04:29:28;;;;;;;4.73;3.90;;;13.00;99.90;;;;;;5008006;28;20191;-92
2022/07/02 04:31:56;;;;;;;3.90;3.60;;;13.10;99.90;;;;;;5001170;28;20188;-93
2022/07/02 04:34:22;;;;;;;3.93;3.63;;;13.10;99.90;;;;;;5010615;28;20266;-94
2022/07/02 04:36:50;;;;;;;3.50;3.20;;;13.00;99.90;;;;;;5009620;28;21015;-94
2022/07/02 04:39:16;;;;;;;5.53;3.10;;;13.10;99.90;;;;;;5001883;28;20191;-94
2022/07/02 04:41:41;;;;;;;4.27;3.73;;;13.10;99.90;;;;;;5038031;28;21121;-94
2022/07/02 04:44:12;;;;;;;3.90;3.50;;;13.00;99.90;;;;;;5011605;28;20183;-93
2022/07/02 04:46:40;;;;;;;3.43;3.20;;;13.40;99.90;;;;;;4996995;28;20196;-91
2022/07/02 04:49:06;;;;;;;3.67;3.47;;;13.20;99.90;;;;;;4999060;28;20625;-92
2022/07/02 04:51:31;;;;;;;5.37;3.67;;;13.60;99.90;;;;;;4997193;28;20518;-92
2022/07/02 04:54:00;;;;;;;4.70;4.30;;;13.30;99.90;;;;;;5003846;28;20185;-93
2022/07/02 04:56:28;;;;;;;6.07;5.47;;;13.60;99.90;;;;;;5006238;28;20223;-91
2022/07/02 04:58:55;;;;;;;6.03;4.53;;;13.50;99.90;;;;;;5008853;28;20442;-93
2022/07/02 05:01:20;;;;;;;5.60;5.10;;;13.60;99.90;;;;;;5046567;28;20596;-93
2022/07/02 05:03:46;;;;;;;5.30;4.90;;;13.60;99.90;;;;;;5005287;28;20448;-93
2022/07/02 05:06:25;;;;;;;5.67;5.17;;;13.80;99.90;;;;;;5000876;28;20334;-93
2022/07/02 05:08:51;;;;;;;5.20;4.77;;;13.80;99.90;;;;;;5000113;28;20217;-94
2022/07/02 05:11:20;;;;;;;6.20;5.50;;;13.80;99.90;;;;;;5008088;28;20435;-94
2022/07/02 05:14:00;;;;;;;6.40;5.80;;;14.10;99.90;;;;;;5004815;28;20462;-92
2022/07/02 05:16:26;;;;;;;5.77;5.27;;;13.90;99.90;;;;;;5008747;28;20480;-95
2022/07/02 05:18:52;;;;;;;6.13;5.63;;;14.30;99.90;;;;;;5001888;28;20494;-95
2022/07/02 05:21:17;;;;;;;7.13;5.20;;;14.10;99.90;;;;;;5006494;28;20176;-95
2022/07/02 05:23:43;;;;;;;6.83;6.30;;;14.10;99.90;;;;;;5007478;28;20194;-94
2022/07/02 05:26:12;;;;;;;6.03;5.30;;;14.30;99.90;;;;;;5043118;28;20180;-96
2022/07/02 05:28:37;;;;;;;7.00;6.30;;;14.50;99.90;;;;;;5012100;28;20506;-96
2022/07/02 05:31:03;;;;;;;5.60;5.20;;;14.30;99.90;;;;;;5012448;28;20463;-95
2022/07/02 05:33:28;;;;;;;6.70;6.10;;;14.50;99.90;;;;;;5013664;28;20183;-96
2022/07/02 05:35:54;;;;;;;6.07;5.47;;;15.00;99.90;;;;;;5010516;28;20184;-96
2022/07/02 05:38:42;;;;;;;5.90;5.40;;;14.30;99.90;;;;;;5036245;28;20176;-96
2022/07/02 05:41:10;;;;;;;5.50;4.97;;;14.70;99.90;;;;;;5016413;28;20173;-96
2022/07/02 05:43:38;;;;;;;4.93;4.53;;;14.80;99.90;;;;;;5012867;28;20446;-95
2022/07/02 05:46:03;;;;;;;5.63;5.10;;;14.80;99.90;;;;;;4996570;28;20440;-93
2022/07/02 05:48:29;;;;;;;5.70;5.03;;;14.90;99.90;;;;;;5006315;28;21074;-94
2022/07/02 05:50:55;;;;;;;4.93;4.53;;;15.00;99.90;;;;;;5035593;28;20177;-92
2022/07/02 05:53:39;;;;;;;5.03;4.60;;;15.10;99.90;;;;;;4998236;28;20214;-91
2022/07/02 05:56:09;;;;;;;7.43;5.80;;;15.00;99.90;;;;;;5005125;28;20676;-95
2022/07/02 05:58:37;;;;;;;4.90;4.50;;;14.70;99.90;;;;;;5020347;28;20442;-96
2022/07/02 06:01:13;;;;;;;5.10;4.70;;;14.90;99.90;;;;;;5021119;28;20431;-94
2022/07/02 06:03:41;;;;;;;6.53;5.27;;;14.90;99.90;;;;;;5014719;28;20736;-96
2022/07/02 06:11:35;;;;;;;4.70;4.40;;;15.10;99.90;;;;;;5137282;22;20485;-95
2022/07/02 06:14:14;;;;;;;5.43;4.33;;;15.40;99.90;;;;;;5058180;28;21034;-94
2022/07/02 06:16:46;;;;;;;4.33;4.03;;;15.40;99.90;;;;;;5064657;28;20452;-96
2022/07/02 06:19:12;;;;;;;4.47;4.07;;;17.40;99.90;;;;;;5067231;28;20427;-96
2022/07/02 06:21:38;;;;;;;6.00;4.03;;;15.60;99.90;;;;;;5053157;28;20440;-92
2022/07/02 06:24:14;;;;;;;3.83;3.53;;;15.00;99.90;;;;;;5047182;28;20178;-96
2022/07/02 06:26:46;;;;;;;3.60;3.40;;;16.40;99.90;;;;;;5097456;22;20249;-96
2022/07/02 06:31:47;;;;;;;3.10;2.90;;;15.90;99.90;;;;;;5099460;22;20497;-96
2022/07/02 06:34:35;;;;;;;2.47;2.27;;;17.00;99.90;;;;;;5069877;28;20480;-96
2022/07/02 06:37:03;;;;;;;2.83;2.60;;;17.10;99.90;;;;;;5071363;28;20438;-96
2022/07/02 06:39:29;;;;;;;4.30;2.50;;;16.00;99.90;;;;;;5124810;23;20501;-96
2022/07/02 06:45:05;;;;;;;1.83;1.73;;;17.30;99.90;;;;;;5024229;28;20227;-96
2022/07/02 06:47:42;;;;;;;1.67;1.57;;;17.30;99.90;;;;;;5003130;28;20895;-93
2022/07/02 06:50:18;;;;;;;1.97;1.87;;;18.40;99.90;;;;;;5001026;28;20474;-95
2022/07/02 06:52:52;;;;;;;1.70;1.60;;;17.20;99.90;;;;;;4990552;28;21080;-95
2022/07/02 06:55:21;;;;;;;1.60;1.50;;;17.40;99.90;;;;;;4992684;28;20442;-96
2022/07/02 06:58:09;;;;;;;1.63;1.53;;;17.50;99.90;;;;;;5005086;28;20490;-96
2022/07/02 07:00:38;;;;;;;2.67;1.67;;;18.50;99.90;;;;;;5006162;28;20495;-96
2022/07/02 07:03:06;;;;;;;2.27;2.07;;;16.90;99.90;;;;;;5015683;28;20555;-96
2022/07/02 07:08:30;;;;;;;1.93;1.83;;;19.20;99.90;;;;;;5122809;23;20500;-96
2022/07/02 07:10:56;;;;;;;1.80;1.70;;;20.20;99.90;;;;;;5150082;23;20498;-96
2022/07/02 07:13:24;;;;;;;1.43;1.40;;;18.30;99.90;;;;;;5030906;28;20440;-96
2022/07/02 07:15:53;;;;;;;1.77;1.63;;;19.10;99.90;;;;;;5004798;28;20169;-96
2022/07/02 07:18:19;;;;;;;1.60;1.50;;;19.20;99.90;;;;;;5007120;28;20515;-96
2022/07/02 07:25:55;;;;;;;1.83;1.70;;;18.60;99.90;;;;;;5826707;22;20616;-96
2022/07/02 07:28:24;;;;;;;1.60;1.50;;;20.50;99.90;;;;;;5838748;23;20449;-89
2022/07/02 07:30:52;;;;;;;1.73;1.63;;;19.60;99.90;;;;;;5043843;28;20224;-96
2022/07/02 07:33:18;;;;;;;1.60;1.30;;;20.10;99.90;;;;;;5033958;28;20431;-96
2022/07/02 07:35:44;;;;;;;3.20;1.90;;;18.30;99.90;;;;;;5029206;28;20737;-96
2022/07/02 07:38:10;;;;;;;2.77;2.20;;;19.80;99.90;;;;;;5028019;28;20180;-96
2022/07/02 07:40:35;;;;;;;1.77;1.60;;;19.30;99.90;;;;;;5045712;28;20462;-95
2022/07/02 07:43:08;;;;;;;1.50;1.40;;;19.70;99.90;;;;;;5048521;28;20184;-96
2022/07/02 07:45:34;;;;;;;1.47;1.37;;;18.80;99.90;;;;;;5052570;28;20183;-96
2022/07/02 07:50:40;;;;;;;1.50;1.40;;;18.90;99.90;;;;;;5228799;22;20491;-95
2022/07/02 07:53:06;;;;;;;1.60;1.50;;;19.20;99.90;;;;;;5010037;28;20518;-96
2022/07/02 07:55:32;;;;;;;1.53;1.37;;;19.50;99.90;;;;;;4990433;28;20196;-96
2022/07/02 07:57:57;;;;;;;1.70;1.60;;;19.50;99.90;;;;;;5193351;22;20221;-96
2022/07/02 08:00:23;;;;;;;3.40;1.23;;;20.30;99.90;;;;;;5006713;28;20185;-96
2022/07/02 08:02:49;;;;;;;1.13;1.13;;;19.30;99.90;;;;;;5291313;23;20488;-94
2022/07/02 08:07:49;;;;;;;1.40;1.30;;;19.70;99.90;;;;;;5356491;23;20221;-95
2022/07/02 08:10:20;;;;;;;2.20;1.30;;;20.00;99.90;;;;;;4997919;28;20440;-95
2022/07/02 08:12:47;;;;;;;1.80;1.03;;;21.80;99.90;;;;;;5034326;28;20448;-94
2022/07/02 08:15:13;;;;;;;1.47;1.37;;;21.50;99.90;;;;;;5021030;28;20746;-95
2022/07/02 08:17:41;;;;;;;2.60;1.30;;;19.80;99.90;;;;;;4991449;28;20489;-94
2022/07/02 08:20:12;;;;;;;1.53;1.00;;;19.80;99.90;;;;;;4983807;28;20185;-95
2022/07/02 08:22:51;;;;;;;3.07;1.27;;;20.30;99.90;;;;;;4989958;28;20455;-96
2022/07/02 08:25:17;;;;;;;1.43;1.33;;;20.20;99.90;;;;;;5012239;28;20448;-96
2022/07/02 08:27:55;;;;;;;1.23;1.13;;;20.40;99.90;;;;;;5013250;28;20589;-95
2022/07/02 08:30:21;;;;;;;2.60;0.80;;;20.40;99.90;;;;;;5005926;28;20447;-95
2022/07/02 08:32:46;;;;;;;1.17;0.97;;;20.70;99.90;;;;;;4983178;28;20514;-93
2022/07/02 08:35:13;;;;;;;0.60;0.60;;;20.70;99.90;;;;;;5033257;28;20224;-96
2022/07/02 08:37:39;;;;;;;1.17;0.90;;;20.80;99.90;;;;;;5009291;28;20193;-96
2022/07/02 08:40:05;;;;;;;0.83;0.83;;;20.80;99.90;;;;;;4994339;28;20448;-96
2022/07/02 08:42:31;;;;;;;3.57;0.80;;;20.90;99.90;;;;;;4981160;28;20483;-95
2022/07/02 08:45:08;;;;;;;1.00;0.90;;;20.80;99.90;;;;;;5016956;28;20630;-96
2022/07/02 08:47:36;;;;;;;1.00;0.83;;;20.80;99.90;;;;;;5008040;28;20484;-95
2022/07/02 08:50:03;;;;;;;0.90;0.90;;;20.70;99.90;;;;;;5007071;28;20432;-95
2022/07/02 08:52:28;;;;;;;1.90;1.57;;;21.00;99.90;;;;;;4996015;28;20467;-96
2022/07/02 08:54:58;;;;;;;1.03;0.70;;;21.00;99.90;;;;;;5025885;28;20495;-96
2022/07/02 08:57:30;;;;;;;0.80;0.80;;;21.70;99.90;;;;;;5524513;22;20228;-95
2022/07/02 08:59:59;;;;;;;0.87;0.87;;;23.10;99.90;;;;;;5084742;22;20723;-96
2022/07/02 09:02:44;;;;;;;1.70;1.30;;;22.00;99.90;;;;;;5069589;22;20486;-96
2022/07/02 09:07:50;;;;;;;0.70;0.70;;;21.70;99.90;;;;;;5455221;23;20450;-96
2022/07/02 09:10:17;;;;;;;1.20;1.10;;;22.30;99.90;;;;;;5208372;23;20522;-96
2022/07/02 09:12:44;;;;;;;0.80;0.80;;;23.60;99.90;;;;;;5090172;23;20503;-95
2022/07/02 09:15:12;;;;;;;0.60;0.60;;;22.00;99.90;;;;;;4999180;28;20459;-96
2022/07/02 09:22:50;;;;;;;0.80;0.80;;;22.10;99.90;;;;;;5617692;22;20511;-93
2022/07/02 09:25:28;;;;;;;1.50;0.80;;;23.50;99.90;;;;;;4985978;28;20439;-95
2022/07/02 09:28:15;;;;;;;0.90;0.90;;;22.70;99.90;;;;;;5212812;23;20501;-96
2022/07/02 09:31:03;;;;;;;0.70;0.63;;;23.50;99.90;;;;;;5069181;28;20441;-96
2022/07/02 09:33:29;;;;;;;0.80;0.80;;;22.60;99.90;;;;;;5072752;23;20498;-90
2022/07/02 09:36:09;;;;;;;0.80;0.80;;;22.20;99.90;;;;;;5026873;28;20446;-96
2022/07/02 09:38:48;;;;;;;1.10;0.80;;;22.30;98.00;;;;;;5026709;28;20453;-93
2022/07/02 09:41:18;;;;;;;3.27;0.90;;;22.40;98.90;;;;;;5025597;28;20445;-95
2022/07/02 09:43:44;;;;;;;0.87;0.87;;;22.40;97.20;;;;;;5054555;28;20737;-96
2022/07/02 09:46:19;;;;;;;0.80;0.80;;;22.60;94.90;;;;;;5051658;28;20458;-95
2022/07/02 09:51:21;;;;;;;0.87;0.87;;;22.60;96.60;;;;;;5217266;23;20520;-96
2022/07/02 09:54:07;;;;;;;1.23;0.80;;;24.40;96.50;;;;;;5053922;28;20438;-96
2022/07/02 09:56:34;;;;;;;1.47;0.80;;;23.50;97.70;;;;;;5046469;28;20446;-95
2022/07/02 09:59:24;;;;;;;1.03;0.80;;;22.70;97.40;;;;;;5064378;28;20438;-95
2022/07/02 10:05:04;;;;;;;1.13;0.90;;;23.80;96.50;;;;;;5064636;23;20999;-96
2022/07/02 10:07:31;;;;;;;0.70;0.70;;;23.00;95.60;;;;;;5043675;28;20470;-95
2022/07/02 10:10:00;;;;;;;0.63;0.63;;;22.90;96.80;;;;;;5046857;28;20503;-94
2022/07/02 10:12:25;;;;;;;0.60;0.60;;;23.20;95.90;;;;;;5045709;28;20487;-96
2022/07/02 10:14:52;;;;;;;2.40;0.90;;;23.80;98.20;;;;;;5050331;28;20454;-94
2022/07/02 10:17:18;;;;;;;1.23;0.80;;;23.30;97.80;;;;;;5050456;28;20175;-96
2022/07/02 10:25:09;;;;;;;0.70;0.70;;;23.30;95.50;;;;;;2943550;22;20488;-96
2022/07/02 10:27:35;;;;;;;0.80;0.80;;;23.40;92.50;;;;;;5035050;28;20547;-92
2022/07/02 10:30:01;;;;;;;1.60;0.90;;;23.40;94.60;;;;;;5048029;28;21179;-96
2022/07/02 10:32:42;;;;;;;0.83;0.80;;;23.80;94.90;;;;;;5043401;28;20536;-96
2022/07/02 10:35:20;;;;;;;1.20;1.10;;;23.90;95.90;;;;;;5035345;28;20187;-96
2022/07/02 10:37:46;;;;;;;0.73;0.70;;;24.50;94.90;;;;;;5051113;28;20434;-96
2022/07/02 10:40:17;;;;;;;1.13;0.60;;;24.60;97.20;;;;;;5022316;28;20449;-89
2022/07/02 10:42:48;;;;;;;2.13;0.70;;;25.20;94.30;;;;;;5025344;28;20187;-90
2022/07/02 10:45:16;;;;;;;0.77;0.77;;;24.30;96.30;;;;;;5014560;28;20446;-94
2022/07/02 10:48:04;;;;;;;0.80;0.60;;;24.50;93.70;;;;;;5034884;28;20497;-94
2022/07/02 10:50:37;;;;;;;0.60;0.50;;;24.10;92.70;;;;;;5044005;28;20442;-92
2022/07/02 10:53:17;;;;;;;0.90;0.80;;;23.90;92.70;;;;;;5057540;28;20512;-94
2022/07/02 10:55:45;;;;;;;0.80;0.80;;;24.70;90.90;;;;;;5044435;28;20532;-94
2022/07/02 10:58:35;;;;;;;1.23;0.80;;;24.10;94.10;;;;;;5042971;28;20434;-93
2022/07/02 11:01:21;;;;;;;2.33;1.40;;;24.30;92.70;;;;;;5041630;28;20470;-94
2022/07/02 11:04:06;;;;;;;2.40;0.80;;;24.70;92.10;;;;;;5080621;22;21360;-96
2022/07/02 11:06:34;;;;;;;2.70;1.03;;;24.50;86.10;;;;;;5050183;28;20523;-96
2022/07/02 11:09:06;;;;;;;0.87;0.80;;;24.70;87.60;;;;;;5039812;28;20486;-92
2022/07/02 11:11:35;;;;;;;1.20;1.10;;;24.60;91.80;;;;;;5052479;28;20183;-92
2022/07/02 11:14:02;;;;;;;0.70;0.70;;;24.50;92.70;;;;;;5049811;28;20453;-90
2022/07/02 11:16:37;;;;;;;4.40;0.80;;;24.60;90.50;;;;;;5046298;28;20446;-95
2022/07/02 11:19:28;;;;;;;1.00;0.90;;;24.80;91.80;;;;;;5042693;28;20525;-96
2022/07/02 11:37:46;;;;;;;0.90;0.90;;;25.00;88.20;;;;;;4997879;28;20476;-95
2022/07/02 11:40:31;;;;;;;0.60;0.60;;;25.30;87.20;;;;;;4983697;28;20490;-93
2022/07/02 11:42:57;;;;;;;0.50;0.50;;;25.40;90.10;;;;;;4979528;28;20443;-95
2022/07/02 11:45:22;;;;;;;1.00;0.90;;;25.60;92.60;;;;;;4981670;28;20455;-96
2022/07/02 11:47:50;;;;;;;0.70;0.70;;;25.60;91.20;;;;;;5006801;28;20263;-94
2022/07/02 11:50:31;;;;;;;1.00;1.00;;;25.00;87.20;;;;;;5000367;28;20197;-96
2022/07/02 11:53:00;;;;;;;1.50;0.90;;;25.90;86.80;;;;;;4998060;28;20845;-94
2022/07/02 11:55:25;;;;;;;0.97;0.87;;;26.30;88.90;;;;;;5012597;28;20440;-95
2022/07/02 11:57:52;;;;;;;1.00;0.80;;;25.90;89.20;;;;;;5013821;28;20432;-96
2022/07/02 12:00:28;;;;;;;0.70;0.70;;;27.00;92.90;;;;;;5017647;28;20462;-96
2022/07/02 12:18:24;;;;;;;0.70;0.70;;;26.50;91.70;;;;;;5017004;28;20499;-96
2022/07/02 12:24:53;;;;;;;0.87;0.87;;;26.90;89.20;;;;;;5014825;28;20493;-96
2022/07/02 12:27:32;;;;;;;1.00;1.00;;;27.80;91.60;;;;;;5025052;28;20461;-96
2022/07/02 12:42:59;;;;;;;0.90;0.90;;;26.40;90.80;;;;;;5086608;23;20466;-95
2022/07/02 12:53:33;;;;;;;1.00;0.90;;;26.20;91.50;;;;;;5205303;23;20500;-96
2022/07/02 13:08:55;;;;;;;0.80;0.80;;;27.30;91.20;;;;;;5073380;22;20537;-96
2022/07/02 13:11:29;;;;;;;1.07;1.07;;;28.10;92.70;;;;;;5042093;28;20506;-96
2022/07/02 13:52:12;;;;;;;1.07;0.97;;;28.60;91.20;;;;;;1567180;23;20744;-91
2022/07/02 13:54:47;;;;;;;1.30;1.00;;;28.40;85.00;;;;;;5012773;28;20483;-95
2022/07/02 13:57:15;;;;;;;0.90;0.90;;;28.50;83.00;;;;;;5000458;28;20420;-96
2022/07/02 14:32:15;;;;;;;0.68;0.68;;;42.40;46.00;;;;;;5801879;23;21201;-96
2022/07/02 14:37:17;;;;;;;0.90;0.90;;;43.20;45.00;;;;;;4999072;28;20216;-95
2022/07/02 14:39:44;;;;;;;0.50;0.50;;;42.00;41.70;;;;;;5249179;23;20243;-94
2022/07/02 14:44:45;;;;;;;0.80;0.80;;;40.30;44.00;;;;;;5072483;23;20749;-95
2022/07/02 14:50:18;;;;;;;0.80;0.67;;;40.20;46.00;;;;;;5083908;23;20232;-95
2022/07/02 14:55:22;;;;;;;1.00;0.80;;;38.50;47.30;;;;;;5083510;23;20240;-96
2022/07/02 15:21:22;;;;;;;0.80;0.60;;;38.70;47.20;;;;;;1044068;26;21153;-92
2022/07/02 15:23:50;;;;;;;0.87;0.80;;;37.90;47.00;;;;;;4973658;28;20204;-92
2022/07/02 15:26:19;;;;;;;0.60;0.60;;;39.00;47.00;;;;;;4982011;28;20312;-91
2022/07/02 15:28:46;;;;;;;0.40;0.40;;;39.20;43.00;;;;;;4955961;28;20215;-93
2022/07/02 15:31:12;;;;;;;2.63;0.70;;;39.40;43.60;;;;;;4970943;28;20272;-94
2022/07/02 15:33:39;;;;;;;2.10;0.70;;;38.30;44.50;;;;;;4953419;28;20291;-92
2022/07/02 15:36:06;;;;;;;0.85;0.70;;;39.90;45.10;;;;;;4956924;28;20189;-93
2022/07/02 15:38:33;;;;;;;0.70;0.70;;;39.50;45.00;;;;;;4959395;28;20782;-92
2022/07/02 15:41:00;;;;;;;0.70;0.68;;;39.50;44.50;;;;;;4950718;28;20249;-93
2022/07/02 15:43:26;;;;;;;0.60;0.60;;;38.40;44.30;;;;;;4955341;28;20185;-92
2022/07/02 15:45:53;;;;;;;0.77;0.70;;;40.30;43.80;;;;;;4951030;28;20185;-91
2022/07/02 15:48:20;;;;;;;0.80;0.80;;;43.20;45.00;;;;;;4971301;28;20201;-92
2022/07/02 15:51:00;;;;;;;1.48;0.80;;;41.10;43.00;;;;;;4953655;28;20836;-94
2022/07/02 15:53:29;;;;;;;2.35;0.90;;;41.20;43.10;;;;;;4976040;28;20194;-95
2022/07/02 15:56:01;;;;;;;0.70;0.60;;;41.10;44.40;;;;;;4956778;28;20195;-95
2022/07/02 15:58:51;;;;;;;5.72;0.98;;;40.20;44.80;;;;;;4971594;28;21088;-92
2022/07/02 16:01:47;;;;;;;1.10;0.70;;;41.00;45.30;;;;;;4969271;28;20189;-94
2022/07/02 16:04:15;;;;;;;0.70;0.70;;;40.40;44.40;;;;;;4978674;28;20194;-93
2022/07/02 16:06:55;;;;;;;0.65;0.65;;;41.80;44.10;;;;;;4979184;28;20200;-93
2022/07/02 16:09:47;;;;;;;1.15;0.70;;;42.80;42.00;;;;;;4978294;28;20533;-93
2022/07/02 16:12:14;;;;;;;1.17;0.65;;;43.00;42.10;;;;;;4958095;28;20836;-92
2022/07/02 16:14:41;;;;;;;0.70;0.70;;;42.80;39.80;;;;;;4960365;28;20251;-92
2022/07/02 16:17:09;;;;;;;0.80;0.70;;;40.50;42.30;;;;;;4955795;28;20252;-94
2022/07/02 16:33:24;;;;;;;1.00;1.00;;;42.90;40.80;;;;;;4989512;28;20224;-90
2022/07/02 16:35:56;;;;;;;0.88;0.88;;;41.50;40.90;;;;;;5004837;28;20248;-92
2022/07/02 16:38:28;;;;;;;1.50;0.70;;;41.40;44.30;;;;;;4998748;28;20185;-93
2022/07/02 16:40:56;;;;;;;0.70;0.70;;;42.70;40.50;;;;;;4970731;28;20183;-92
2022/07/02 16:43:31;;;;;;;0.88;0.75;;;44.10;41.60;;;;;;4976792;28;20543;-92
2022/07/02 16:46:25;;;;;;;0.70;0.70;;;44.10;39.90;;;;;;4987776;28;20193;-95
2022/07/02 16:48:55;;;;;;;0.80;0.80;;;43.90;40.20;;;;;;4980626;28;20213;-94
2022/07/02 16:51:24;;;;;;;0.80;0.80;;;42.00;40.10;;;;;;4977511;28;20185;-92
2022/07/02 16:53:50;;;;;;;2.40;0.73;;;42.60;43.00;;;;;;4987623;28;20639;-93
2022/07/02 16:56:17;;;;;;;1.00;1.00;;;43.90;42.40;;;;;;4990944;28;20173;-94
2022/07/02 16:58:45;;;;;;;0.98;0.88;;;44.50;41.10;;;;;;4982416;28;20336;-92
2022/07/02 17:01:56;;;;;;;0.80;0.80;;;44.20;39.20;;;;;;4970290;28;20564;-96
2022/07/02 17:51:14;;;;;;;0.80;0.80;;;39.60;45.70;;;;;;4971356;28;20220;-93
2022/07/02 17:53:40;;;;;;;0.90;0.90;;;39.60;45.20;;;;;;4959365;28;20564;-93
2022/07/02 17:56:05;;;;;;;0.90;0.80;;;39.70;44.30;;;;;;4958498;28;20227;-95
2022/07/02 17:58:33;;;;;;;1.33;0.97;;;39.50;45.30;;;;;;4961404;28;20452;-95
2022/07/02 18:00:59;;;;;;;0.97;0.97;;;39.30;45.30;;;;;;4970921;28;20200;-95
2022/07/02 18:03:25;;;;;;;1.03;0.90;;;39.00;45.30;;;;;;4960709;28;20189;-96
2022/07/02 18:05:51;;;;;;;1.33;1.00;;;38.40;45.90;;;;;;4979117;28;20506;-94
2022/07/02 18:08:16;;;;;;;0.90;0.90;;;38.10;44.80;;;;;;4963013;28;20308;-94
2022/07/02 18:10:43;;;;;;;1.20;1.10;;;38.00;46.00;;;;;;4960819;28;20445;-94
2022/07/02 18:13:10;;;;;;;0.80;0.80;;;38.10;46.20;;;;;;4958340;28;20181;-94
2022/07/02 18:15:36;;;;;;;0.90;0.90;;;37.90;46.30;;;;;;4963675;28;20455;-96
2022/07/02 18:18:02;;;;;;;3.50;0.97;;;37.80;47.00;;;;;;4984180;28;21378;-96
2022/07/02 18:20:28;;;;;;;1.27;1.00;;;37.80;48.10;;;;;;4983253;28;20227;-96
2022/07/02 18:22:53;;;;;;;2.67;1.00;;;37.60;47.10;;;;;;4961011;28;20511;-95
2022/07/02 18:25:19;;;;;;;1.10;1.00;;;37.20;47.70;;;;;;4963401;28;20181;-96
2022/07/02 18:27:46;;;;;;;1.60;0.87;;;36.70;50.00;;;;;;4966853;28;20621;-94
2022/07/02 18:30:12;;;;;;;1.00;1.00;;;36.10;49.30;;;;;;4996030;28;20193;-95
2022/07/02 18:32:41;;;;;;;1.90;1.00;;;35.60;49.90;;;;;;4951414;28;20447;-93
2022/07/02 18:35:16;;;;;;;1.73;1.00;;;35.40;48.70;;;;;;4978102;28;20441;-96
2022/07/02 18:37:58;;;;;;;0.97;0.97;;;35.40;49.10;;;;;;4965340;28;20466;-96
2022/07/02 18:40:36;;;;;;;0.90;0.90;;;34.60;49.20;;;;;;4964059;28;20581;-95
2022/07/02 18:48:15;;;;;;;1.23;1.13;;;33.10;52.30;;;;;;4978688;28;20496;-96
2022/07/02 18:50:47;;;;;;;1.10;1.10;;;32.00;53.20;;;;;;4987086;28;20745;-96
2022/07/02 18:53:13;;;;;;;1.33;1.23;;;30.80;54.80;;;;;;4999306;28;20449;-95
2022/07/02 18:55:39;;;;;;;5.13;1.20;;;29.40;57.80;;;;;;4983260;28;20445;-89
2022/07/02 18:58:05;;;;;;;1.83;1.30;;;27.80;62.30;;;;;;4994180;28;20178;-89
2022/07/02 19:00:32;;;;;;;1.83;1.30;;;26.70;64.90;;;;;;4975016;28;20232;-90
2022/07/02 19:02:58;;;;;;;1.50;1.40;;;25.30;70.00;;;;;;4974968;28;20197;-88
2022/07/02 19:05:42;;;;;;;1.40;1.30;;;24.60;75.40;;;;;;4987619;28;20458;-96
2022/07/02 19:08:10;;;;;;;1.13;1.13;;;23.80;81.20;;;;;;4997998;28;20505;-94
2022/07/02 19:11:02;;;;;;;1.40;1.30;;;23.50;86.40;;;;;;4984383;28;20443;-94
2022/07/02 19:13:28;;;;;;;5.77;1.67;;;22.80;87.50;;;;;;4984252;28;20456;-95
2022/07/02 19:15:59;;;;;;;1.43;1.33;;;22.60;88.60;;;;;;5030445;28;20429;-96
2022/07/02 19:18:30;;;;;;;1.50;1.20;;;22.60;89.00;;;;;;4986775;28;20177;-94
2022/07/02 19:20:55;;;;;;;1.40;1.30;;;22.60;88.60;;;;;;5003113;28;20799;-94
2022/07/02 19:23:21;;;;;;;1.37;1.37;;;22.00;88.40;;;;;;4984376;28;20436;-96
2022/07/02 19:25:46;;;;;;;1.50;1.40;;;22.00;90.10;;;;;;4991662;28;20239;-96
2022/07/02 19:30:56;;;;;;;2.97;1.67;;;22.50;90.70;;;;;;4991286;28;20546;-93
2022/07/02 19:33:22;;;;;;;1.37;1.27;;;22.00;92.10;;;;;;4984234;28;20475;-95
2022/07/02 19:35:49;;;;;;;1.67;1.53;;;21.80;91.50;;;;;;5007796;28;20212;-93
2022/07/02 19:38:15;;;;;;;1.57;1.40;;;23.10;92.30;;;;;;4988163;28;20197;-94
2022/07/02 19:40:43;;;;;;;1.93;1.63;;;21.70;93.10;;;;;;4986577;28;20887;-94
2022/07/02 19:43:12;;;;;;;1.63;1.30;;;21.70;92.80;;;;;;4982189;28;20181;-93
2022/07/02 19:45:44;;;;;;;1.13;1.13;;;22.00;92.70;;;;;;4983492;28;20440;-93
2022/07/02 19:48:39;;;;;;;1.40;1.30;;;22.30;92.10;;;;;;4978522;28;20679;-94
2022/07/02 19:51:35;;;;;;;1.33;1.23;;;21.50;92.40;;;;;;4984432;28;20476;-95
2022/07/02 19:54:01;;;;;;;1.50;1.40;;;21.20;91.80;;;;;;4975518;28;20451;-96
2022/07/02 19:56:27;;;;;;;1.47;1.37;;;22.60;93.80;;;;;;4975398;28;20444;-94
2022/07/02 19:58:52;;;;;;;1.60;1.50;;;21.30;93.00;;;;;;4976906;28;20185;-95
2022/07/02 20:01:20;;;;;;;3.03;1.70;;;22.20;94.60;;;;;;4974325;28;20198;-92
2022/07/02 20:03:48;;;;;;;2.73;1.60;;;22.20;94.30;;;;;;4981611;28;20197;-95
2022/07/02 20:06:17;;;;;;;1.33;1.23;;;21.20;94.40;;;;;;4981701;28;21061;-93
2022/07/02 20:26:49;;;;;;;2.70;2.40;;;20.90;93.40;;;;;;4978744;28;20496;-87
2022/07/02 20:29:15;;;;;;;2.97;2.20;;;20.80;93.20;;;;;;4966824;28;20472;-92
2022/07/02 20:31:42;;;;;;;1.70;1.60;;;20.80;92.80;;;;;;4960058;28;20441;-93
2022/07/02 20:34:12;;;;;;;1.33;1.23;;;20.80;93.00;;;;;;4959390;28;20608;-90
2022/07/02 20:36:57;;;;;;;2.33;1.40;;;21.10;92.60;;;;;;4968571;28;20526;-96
2022/07/02 20:40:07;;;;;;;1.23;1.13;;;20.80;92.90;;;;;;5009585;28;20446;-96
2022/07/02 20:58:04;;;;;;;3.03;1.30;;;20.60;95.80;;;;;;5005401;28;20988;-96
2022/07/02 21:03:01;;;;;;;1.37;1.27;;;20.30;97.90;;;;;;5531166;22;21964;-94
2022/07/02 21:05:26;;;;;;;1.57;1.47;;;20.90;99.80;;;;;;5039047;28;20447;-94
2022/07/02 21:07:52;;;;;;;1.30;1.30;;;19.70;99.50;;;;;;5035722;28;20824;-96
2022/07/02 21:10:19;;;;;;;9.40;6.00;;;19.80;99.90;;;;;;5032307;28;20184;-94
2022/07/02 21:12:47;;;;;;;4.27;2.20;;;19.80;99.90;;;;;;5013610;28;20372;-95
2022/07/02 21:15:12;;;;;;;2.20;2.10;;;19.80;99.90;;;;;;5025265;28;20498;-95
2022/07/02 21:17:38;;;;;;;2.70;2.17;;;19.50;99.90;;;;;;5029129;28;20482;-95
2022/07/02 21:20:05;;;;;;;2.33;2.10;;;19.50;99.90;;;;;;5020741;28;20235;-95